Time;durP1;ratioP1;P1;durP2;ratioP2;P2;SDS_P1;SDS_P2;PMS_P1;PMS_P2;Temp;Humidity;BMP_temperature;BMP_pressure;BME280_temperature;BME280_humidity;BME280_pressure;Samples;Min_cycle;Max_cycle;Signal;HPM_P1;HPM_P2
2021/11/16 00:01:27;;;;;;;47.53;29.98;;;;;;;5.08;87.31;97574.84;1787417;80;21437;-82
2021/11/16 00:03:51;;;;;;;44.80;27.00;;;;;;;5.11;87.14;97574.59;1797375;80;21003;-82
2021/11/16 00:06:18;;;;;;;35.03;24.12;;;;;;;5.10;86.88;97571.67;1798163;80;20975;-82
2021/11/16 00:08:43;;;;;;;42.83;27.37;;;;;;;5.11;86.60;97563.47;1798176;80;20954;-82
2021/11/16 00:11:09;;;;;;;40.45;24.92;;;;;;;5.13;86.80;97562.87;1798133;80;21357;-82
2021/11/16 00:13:35;;;;;;;44.45;26.27;;;;;;;5.16;86.84;97565.69;1800168;80;21042;-82
2021/11/16 00:16:01;;;;;;;50.80;28.55;;;;;;;5.11;86.66;97561.71;1798104;80;20932;-82
2021/11/16 00:18:29;;;;;;;48.10;29.20;;;;;;;5.06;86.61;97569.45;1798179;80;21325;-82
2021/11/16 00:20:56;;;;;;;40.83;26.23;;;;;;;5.04;86.82;97566.16;1798126;80;21409;-82
2021/11/16 00:23:25;;;;;;;46.40;28.98;;;;;;;5.04;86.72;97564.42;1797958;80;21006;-82
2021/11/16 00:25:55;;;;;;;43.35;27.02;;;;;;;5.03;86.55;97559.36;1798109;80;20978;-82
2021/11/16 00:28:22;;;;;;;44.45;25.12;;;;;;;5.01;86.54;97562.53;1798038;80;20998;-82
2021/11/16 00:30:47;;;;;;;44.10;26.23;;;;;;;4.98;86.69;97561.48;1798130;80;20983;-82
2021/11/16 00:33:13;;;;;;;41.73;25.77;;;;;;;4.96;86.69;97558.21;1796880;80;20988;-82
2021/11/16 00:35:40;;;;;;;43.85;27.80;;;;;;;4.91;86.72;97558.57;1794941;80;21011;-82
2021/11/16 00:38:08;;;;;;;45.40;29.20;;;;;;;4.92;86.78;97565.36;1766425;80;21022;-82
2021/11/16 00:40:34;;;;;;;44.63;27.30;;;;;;;4.95;86.87;97568.16;1795082;80;21014;-82
2021/11/16 00:43:00;;;;;;;45.73;27.90;;;;;;;4.96;86.73;97571.09;1795243;80;20955;-82
2021/11/16 00:45:27;;;;;;;43.15;26.05;;;;;;;4.94;86.74;97572.97;1795031;80;21330;-82
2021/11/16 00:47:54;;;;;;;43.33;25.32;;;;;;;4.94;86.78;97580.23;1795001;80;21055;-82
2021/11/16 00:50:20;;;;;;;45.43;26.33;;;;;;;4.91;86.81;97576.60;1795121;80;20978;-82
2021/11/16 00:52:47;;;;;;;42.50;27.30;;;;;;;4.91;86.82;97574.50;1795125;80;20964;-82
2021/11/16 00:55:14;;;;;;;44.65;28.02;;;;;;;4.92;86.86;97576.13;1794606;80;21022;-82
2021/11/16 00:57:40;;;;;;;42.90;27.87;;;;;;;4.95;86.90;97579.75;1795111;80;20986;-82
2021/11/16 01:00:06;;;;;;;45.85;28.23;;;;;;;4.96;86.85;97581.39;1794862;80;20994;-82
2021/11/16 01:02:32;;;;;;;44.53;27.50;;;;;;;4.98;86.82;97585.48;1795254;80;20940;-82
2021/11/16 01:04:58;;;;;;;38.95;25.20;;;;;;;5.01;86.97;97584.42;1795098;80;21002;-82
2021/11/16 01:07:24;;;;;;;40.20;24.10;;;;;;;5.00;86.91;97587.47;1795108;80;21370;-82
2021/11/16 01:09:49;;;;;;;34.58;22.17;;;;;;;4.98;86.83;97589.34;1795045;80;20975;-82
2021/11/16 01:12:15;;;;;;;37.80;22.10;;;;;;;4.98;86.72;97593.68;1795165;80;20908;-82
2021/11/16 01:14:41;;;;;;;44.27;25.20;;;;;;;4.95;86.31;97590.88;1795120;80;21030;-82
2021/11/16 01:17:07;;;;;;;44.60;27.37;;;;;;;4.83;85.89;97590.05;1795092;80;21019;-82
2021/11/16 01:19:33;;;;;;;48.00;27.73;;;;;;;4.77;86.23;97589.23;1795132;80;21400;-82
2021/11/16 01:21:59;;;;;;;44.98;27.52;;;;;;;4.79;86.47;97591.69;1794868;80;20951;-82
2021/11/16 01:24:26;;;;;;;42.83;25.97;;;;;;;4.70;86.21;97597.05;1794929;80;21457;-82
2021/11/16 01:26:52;;;;;;;48.38;26.77;;;;;;;4.64;86.28;97594.95;1795045;80;20990;-82
2021/11/16 01:29:19;;;;;;;47.25;26.90;;;;;;;4.59;86.21;97596.23;1794919;80;20967;-82
2021/11/16 01:31:45;;;;;;;36.93;23.07;;;;;;;4.58;86.50;97594.13;1791672;80;20960;-82
2021/11/16 01:34:11;;;;;;;41.18;25.25;;;;;;;4.62;86.67;97591.67;1776521;80;21062;-82
2021/11/16 01:36:38;;;;;;;40.25;23.02;;;;;;;4.64;86.63;97592.37;1797874;80;21042;-82
2021/11/16 01:39:04;;;;;;;43.05;24.77;;;;;;;4.63;86.61;97588.16;1797939;80;20959;-82
2021/11/16 01:41:31;;;;;;;44.90;25.37;;;;;;;4.64;86.69;97585.94;1797635;80;20964;-82
2021/11/16 01:43:57;;;;;;;39.15;25.05;;;;;;;4.63;86.65;97578.33;1771008;80;21042;-82
2021/11/16 01:46:23;;;;;;;39.48;23.95;;;;;;;4.65;86.68;97575.17;1797659;80;20959;-82
2021/11/16 01:48:52;;;;;;;39.25;24.57;;;;;;;4.67;86.64;97566.86;1797756;80;20971;-82
2021/11/16 01:51:21;;;;;;;44.10;23.73;;;;;;;4.66;86.62;97566.05;1797725;80;20975;-82
2021/11/16 01:53:50;;;;;;;38.42;24.12;;;;;;;4.70;86.71;97570.48;1797672;80;21421;-82
2021/11/16 01:56:17;;;;;;;42.48;22.13;;;;;;;4.71;86.75;97572.13;1796742;80;21118;-82
2021/11/16 01:58:43;;;;;;;37.88;23.25;;;;;;;4.69;86.77;97569.67;1797916;80;21023;-82
2021/11/16 02:01:09;;;;;;;33.83;21.20;;;;;;;4.66;86.79;97571.66;1797690;80;21027;-82
2021/11/16 02:03:34;;;;;;;36.68;22.77;;;;;;;4.68;86.78;97567.21;1797943;80;21005;-82
2021/11/16 02:06:22;;;;;;;33.92;21.37;;;;;;;4.69;86.52;97568.38;1797498;80;21543;-82
2021/11/16 02:08:49;;;;;;;36.48;22.70;;;;;;;4.65;86.32;97573.42;1797594;80;21002;-82
2021/11/16 02:11:15;;;;;;;35.70;21.82;;;;;;;4.68;86.64;97577.04;1797572;80;21433;-82
2021/11/16 02:13:41;;;;;;;37.58;22.55;;;;;;;4.69;86.55;97574.00;1797665;80;21062;-82
2021/11/16 02:16:07;;;;;;;36.05;21.45;;;;;;;4.62;86.58;97572.83;1797655;80;21013;-82
2021/11/16 02:18:32;;;;;;;37.50;22.05;;;;;;;4.58;86.85;97570.97;1797629;80;20990;-82
2021/11/16 02:20:58;;;;;;;35.10;22.37;;;;;;;4.59;86.71;97573.89;1797546;80;20998;-82
2021/11/16 02:23:24;;;;;;;40.35;23.32;;;;;;;4.54;86.58;97565.67;1797754;80;21018;-82
2021/11/16 02:25:50;;;;;;;36.75;20.65;;;;;;;4.51;86.76;97565.91;1797776;80;20989;-82
2021/11/16 02:28:17;;;;;;;36.85;21.50;;;;;;;4.50;86.69;97557.37;1797461;80;21130;-82
2021/11/16 02:30:43;;;;;;;34.18;21.27;;;;;;;4.50;86.94;97559.12;1793323;80;21369;-82
2021/11/16 02:33:08;;;;;;;34.67;20.70;;;;;;;4.46;86.86;97557.25;1776163;80;21082;-82
2021/11/16 02:35:34;;;;;;;33.65;20.27;;;;;;;4.45;87.10;97554.80;1794896;80;21018;-82
2021/11/16 02:38:01;;;;;;;30.05;20.82;;;;;;;4.48;87.11;97557.13;1794754;80;21436;-82
2021/11/16 02:40:27;;;;;;;30.08;18.90;;;;;;;4.50;87.01;97554.80;1794859;80;20959;-82
2021/11/16 02:42:53;;;;;;;30.92;20.30;;;;;;;4.52;86.89;97555.49;1794741;80;21003;-82
2021/11/16 02:45:19;;;;;;;33.60;20.12;;;;;;;4.49;86.64;97546.72;1794951;80;21050;-82
2021/11/16 02:47:46;;;;;;;35.10;19.95;;;;;;;4.43;86.61;97540.77;1794554;80;21370;-82
2021/11/16 02:50:12;;;;;;;35.15;20.85;;;;;;;4.40;86.69;97539.70;1794907;80;20991;-82
2021/11/16 02:52:38;;;;;;;30.15;19.23;;;;;;;4.37;86.74;97541.67;1795001;80;21278;-82
2021/11/16 02:55:06;;;;;;;32.60;21.15;;;;;;;4.38;86.77;97542.84;1795045;80;20955;-82
2021/11/16 02:57:32;;;;;;;29.12;18.82;;;;;;;4.43;86.81;97530.94;1766176;80;21102;-82
2021/11/16 02:59:58;;;;;;;34.10;20.57;;;;;;;4.45;86.87;97529.88;1794788;80;21390;-82
2021/11/16 03:02:23;;;;;;;31.52;19.12;;;;;;;4.48;86.81;97524.97;1794900;80;20982;-82
2021/11/16 03:04:51;;;;;;;27.22;16.30;;;;;;;4.45;86.74;97532.92;1794771;80;21039;-82
2021/11/16 03:07:32;;;;;;;28.80;17.57;;;;;;;4.42;86.75;97540.88;1766577;80;21007;-82
2021/11/16 03:09:58;;;;;;;28.00;17.85;;;;;;;4.36;86.53;97534.41;1794847;80;21066;-82
2021/11/16 03:12:29;;;;;;;25.80;17.40;;;;;;;4.34;86.47;97534.18;1794926;80;21082;-82
2021/11/16 03:14:55;;;;;;;27.85;17.85;;;;;;;4.34;86.65;97535.47;1792819;80;21035;-82
2021/11/16 03:17:22;;;;;;;23.47;16.12;;;;;;;4.35;86.67;97535.35;1794692;80;21007;-82
2021/11/16 03:19:48;;;;;;;29.52;17.85;;;;;;;4.38;86.77;97540.73;1794958;80;21027;-82
2021/11/16 03:22:15;;;;;;;30.23;19.02;;;;;;;4.40;86.83;97535.03;1794935;80;21059;-82
2021/11/16 03:24:41;;;;;;;26.85;18.52;;;;;;;4.41;86.96;97533.63;1795036;80;20963;-82
2021/11/16 03:27:14;;;;;;;27.62;18.52;;;;;;;4.41;86.68;97534.09;1795092;80;21378;-82
2021/11/16 03:29:44;;;;;;;28.57;17.95;;;;;;;4.40;86.58;97528.12;1794685;80;21042;-82
2021/11/16 03:32:10;;;;;;;24.75;16.37;;;;;;;4.39;86.47;97523.07;1784502;79;20991;-82
2021/11/16 03:34:35;;;;;;;26.15;15.98;;;;;;;4.36;86.29;97520.73;1753655;81;21370;-82
2021/11/16 03:37:02;;;;;;;26.85;17.62;;;;;;;4.13;85.82;97514.27;1764726;81;21046;-82
2021/11/16 03:39:28;;;;;;;30.68;19.67;;;;;;;4.05;86.67;97514.47;1764893;81;21354;-82
2021/11/16 03:41:54;;;;;;;25.27;17.90;;;;;;;4.07;87.11;97511.34;1764703;81;20962;-82
2021/11/16 03:44:21;;;;;;;28.73;19.32;;;;;;;4.12;87.29;97510.53;1764840;81;21037;-82
2021/11/16 03:46:47;;;;;;;27.48;18.48;;;;;;;4.16;87.35;97511.94;1764776;81;21078;-82
2021/11/16 03:49:14;;;;;;;32.65;20.30;;;;;;;4.21;87.37;97509.83;1764363;81;21077;-82
2021/11/16 03:51:41;;;;;;;26.17;17.87;;;;;;;4.22;87.38;97508.42;1765015;81;21040;-82
2021/11/16 03:54:08;;;;;;;29.82;19.10;;;;;;;4.24;87.17;97513.48;1764847;81;21366;-82
2021/11/16 03:56:34;;;;;;;31.12;19.27;;;;;;;4.22;87.36;97525.62;1764716;81;21014;-82
2021/11/16 03:58:59;;;;;;;30.62;19.70;;;;;;;4.24;87.59;97512.67;1764971;81;21008;-82
2021/11/16 04:01:25;;;;;;;25.92;17.25;;;;;;;4.22;87.15;97511.00;1764838;81;21320;-82
2021/11/16 04:03:51;;;;;;;26.75;16.85;;;;;;;4.21;87.07;97508.08;1764670;81;20943;-82
2021/11/16 04:06:19;;;;;;;25.20;17.85;;;;;;;4.20;87.14;97511.58;1764704;81;21392;-82
2021/11/16 04:08:45;;;;;;;28.05;17.98;;;;;;;4.24;87.30;97503.66;1764854;81;21406;-82
2021/11/16 04:11:11;;;;;;;28.40;17.48;;;;;;;4.25;87.41;97509.16;1764847;81;21050;-81
2021/11/16 04:13:36;;;;;;;26.82;16.65;;;;;;;4.22;87.22;97507.61;1764954;81;20943;-82
2021/11/16 04:16:03;;;;;;;26.30;16.97;;;;;;;4.27;87.60;97500.86;1764880;81;20990;-82
2021/11/16 04:18:29;;;;;;;26.55;17.77;;;;;;;4.33;87.58;97501.67;1764647;81;21460;-82
2021/11/16 04:20:55;;;;;;;30.92;19.60;;;;;;;4.39;87.43;97499.47;1764786;81;21069;-82
2021/11/16 04:23:20;;;;;;;29.15;20.20;;;;;;;4.39;87.17;97501.20;1765008;81;21341;-82
2021/11/16 04:25:46;;;;;;;26.27;16.37;;;;;;;4.35;87.06;97508.80;1764936;81;20982;-82
2021/11/16 04:28:14;;;;;;;27.52;17.15;;;;;;;4.32;86.80;97509.86;1764766;81;20946;-82
2021/11/16 04:30:40;;;;;;;27.30;17.98;;;;;;;4.25;86.73;97499.69;1763494;80;21090;-82
2021/11/16 04:33:07;;;;;;;24.37;16.30;;;;;;;4.26;87.08;97501.79;1743707;81;21321;-82
2021/11/16 04:35:33;;;;;;;27.52;17.80;;;;;;;4.27;86.82;97497.00;1762052;81;21057;-82
2021/11/16 04:38:03;;;;;;;25.88;16.37;;;;;;;4.22;86.39;97500.70;1759626;81;22258;-82
2021/11/16 04:40:35;;;;;;;26.25;17.45;;;;;;;4.10;86.12;97504.22;1761914;81;21021;-82
2021/11/16 04:43:04;;;;;;;25.35;16.25;;;;;;;4.04;86.68;97505.94;1795012;80;21031;-82
2021/11/16 04:45:28;;;;;;;24.98;15.08;;;;;;;4.03;86.87;97507.34;1794863;80;21003;-82
2021/11/16 04:48:01;;;;;;;23.85;15.13;;;;;;;4.02;87.01;97510.38;1795105;80;21003;-82
2021/11/16 04:51:03;;;;;;;22.42;14.68;;;;;;;4.04;87.00;97511.55;1794418;80;21091;-82
2021/11/16 05:03:52;;;;;;;26.40;16.73;;;;;;;4.10;86.89;97517.55;1795162;80;21026;-82
2021/11/16 05:06:18;;;;;;;21.65;15.23;;;;;;;4.05;86.85;97521.72;1794953;80;21046;-82
2021/11/16 05:08:45;;;;;;;23.67;15.05;;;;;;;4.05;86.96;97522.19;1795116;80;21358;-82
2021/11/16 05:11:11;;;;;;;21.52;14.58;;;;;;;4.06;87.09;97525.94;1794972;80;21408;-82
2021/11/16 05:13:38;;;;;;;22.85;13.85;;;;;;;4.10;87.05;97521.41;1795070;80;20976;-82
2021/11/16 05:16:06;;;;;;;21.50;13.60;;;;;;;4.04;86.58;97521.38;1795141;80;21354;-82
2021/11/16 05:18:32;;;;;;;23.18;14.98;;;;;;;4.01;86.69;97521.60;1795074;80;21354;-82
2021/11/16 05:20:58;;;;;;;24.90;14.95;;;;;;;3.99;86.77;97517.05;1795069;80;20987;-82
2021/11/16 05:23:24;;;;;;;21.42;15.72;;;;;;;3.91;86.54;97518.91;1794996;80;20980;-82
2021/11/16 05:25:51;;;;;;;23.05;16.52;;;;;;;3.86;86.71;97518.41;1795199;80;21408;-82
2021/11/16 05:28:18;;;;;;;26.27;17.65;;;;;;;3.87;86.71;97520.50;1795140;80;21002;-82
2021/11/16 05:30:44;;;;;;;24.43;16.57;;;;;;;3.88;87.02;97521.67;1795011;80;21030;-82
2021/11/16 05:33:10;;;;;;;24.52;15.53;;;;;;;3.92;87.22;97519.72;1795072;80;20986;-82
2021/11/16 05:35:36;;;;;;;24.05;17.12;;;;;;;3.94;87.30;97520.43;1797089;80;20999;-82
2021/11/16 05:38:02;;;;;;;22.95;14.43;;;;;;;3.90;87.23;97522.41;1797950;80;20995;-82
2021/11/16 05:40:28;;;;;;;23.75;15.95;;;;;;;3.88;87.13;97520.39;1797814;80;20952;-82
2021/11/16 05:42:54;;;;;;;23.67;16.12;;;;;;;3.89;87.19;97520.74;1797847;80;20947;-82
2021/11/16 05:45:20;;;;;;;22.82;16.80;;;;;;;3.94;87.21;97523.00;1797579;80;21357;-82
2021/11/16 05:47:46;;;;;;;23.87;16.70;;;;;;;3.98;87.14;97517.16;1797698;80;20983;-83
2021/11/16 05:50:14;;;;;;;26.17;17.87;;;;;;;3.99;87.15;97515.76;1797504;80;21409;-82
2021/11/16 05:52:40;;;;;;;25.72;16.77;;;;;;;4.02;87.08;97515.53;1797645;80;20979;-82
2021/11/16 05:55:08;;;;;;;22.93;15.85;;;;;;;4.00;87.03;97519.15;1797919;80;20963;-82
2021/11/16 05:57:35;;;;;;;25.92;17.57;;;;;;;4.01;87.18;97525.92;1797831;80;21007;-82
2021/11/16 06:00:01;;;;;;;24.30;15.43;;;;;;;3.99;86.86;97531.66;1793582;80;20970;-82
2021/11/16 06:02:27;;;;;;;21.23;15.23;;;;;;;3.97;86.83;97528.38;1770721;80;20984;-82
2021/11/16 06:04:53;;;;;;;23.67;16.23;;;;;;;3.99;86.96;97532.47;1791324;80;20963;-82
2021/11/16 06:07:18;;;;;;;21.40;15.72;;;;;;;4.02;86.98;97531.42;1797820;80;21038;-82
2021/11/16 06:09:44;;;;;;;22.35;14.78;;;;;;;4.04;87.08;97527.80;1797995;80;20967;-82
2021/11/16 06:12:11;;;;;;;22.37;14.90;;;;;;;4.02;86.79;97527.09;1797761;80;20975;-82
2021/11/16 06:14:36;;;;;;;23.52;15.18;;;;;;;3.95;86.71;97527.67;1771275;80;20967;-82
2021/11/16 06:17:02;;;;;;;18.45;13.95;;;;;;;3.93;86.60;97532.12;1797654;80;21338;-82
2021/11/16 06:19:34;;;;;;;49.65;31.33;;;;;;;3.91;86.59;97533.52;1798172;80;21302;-82
2021/11/16 06:21:57;;;;;;;39.05;26.62;;;;;;;3.91;86.50;97542.52;1797134;80;20983;-82
2021/11/16 06:24:23;;;;;;;26.80;16.00;;;;;;;3.93;86.73;97548.83;1797712;80;20995;-82
2021/11/16 06:26:49;;;;;;;27.62;15.18;;;;;;;3.91;86.86;97548.48;1797756;80;21018;-82
2021/11/16 06:29:16;;;;;;;23.92;16.10;;;;;;;3.89;86.70;97553.35;1797402;80;21019;-82
2021/11/16 06:31:41;;;;;;;19.80;14.43;;;;;;;3.82;86.74;97553.45;1797677;80;20904;-82
2021/11/16 06:34:09;;;;;;;21.50;14.28;;;;;;;3.84;86.86;97547.73;1797736;80;21153;-82
2021/11/16 06:36:38;;;;;;;18.37;13.45;;;;;;;3.88;86.93;97554.28;1797697;80;21420;-82
2021/11/16 06:39:13;;;;;;;19.02;14.10;;;;;;;3.90;86.71;97549.41;1797990;80;20971;-83
2021/11/16 06:41:39;;;;;;;23.38;13.68;;;;;;;3.86;86.65;97545.40;1798171;80;20955;-82
2021/11/16 06:44:07;;;;;;;18.92;13.22;;;;;;;3.81;86.37;97550.06;1798091;80;20975;-82
2021/11/16 06:46:33;;;;;;;19.92;13.95;;;;;;;3.81;86.71;97551.81;1797950;80;21388;-82
2021/11/16 06:49:00;;;;;;;21.97;15.43;;;;;;;3.79;86.75;97556.25;1798021;80;20970;-82
2021/11/16 06:51:26;;;;;;;17.57;12.58;;;;;;;3.78;86.74;97561.05;1797776;80;21004;-82
2021/11/16 06:53:52;;;;;;;19.35;12.70;;;;;;;3.78;86.58;97555.44;1797857;80;21435;-82
2021/11/16 06:56:22;;;;;;;20.00;14.28;;;;;;;3.78;86.48;97566.19;1798006;80;21031;-82
2021/11/16 06:58:48;;;;;;;19.30;14.07;;;;;;;3.80;86.79;97565.60;1798063;80;21405;-82
2021/11/16 07:01:14;;;;;;;21.07;13.75;;;;;;;3.78;86.70;97567.47;1797951;80;21038;-82
2021/11/16 07:03:39;;;;;;;19.42;13.65;;;;;;;3.77;86.90;97562.80;1798288;80;20990;-82
2021/11/16 07:06:05;;;;;;;18.50;14.10;;;;;;;3.77;86.93;97559.41;1773495;80;21336;-82
2021/11/16 07:08:38;;;;;;;19.52;14.07;;;;;;;3.80;87.07;97564.31;1783990;80;20994;-82
2021/11/16 07:11:17;;;;;;;21.25;15.15;;;;;;;3.81;87.04;97561.63;1797887;80;20982;-82
2021/11/16 07:14:04;;;;;;;26.07;14.23;;;;;;;3.81;86.71;97560.81;1797949;80;21337;-82
2021/11/16 07:16:34;;;;;;;32.25;15.85;;;;;;;3.77;86.60;97554.27;1797998;80;21380;-82
2021/11/16 07:19:02;;;;;;;22.77;15.72;;;;;;;3.73;87.10;97561.35;1797889;80;21025;-82
2021/11/16 07:21:30;;;;;;;40.73;25.68;;;;;;;3.74;87.32;97559.60;1797792;80;21393;-82
2021/11/16 07:24:12;;;;;;;24.60;17.23;;;;;;;3.77;87.13;97562.80;1795908;80;21564;-82
2021/11/16 07:26:40;;;;;;;32.53;21.60;;;;;;;3.79;87.12;97562.68;1797953;80;20979;-82
2021/11/16 07:29:16;;;;;;;27.85;17.10;;;;;;;3.81;86.96;97556.96;1797965;80;21010;-82
2021/11/16 07:31:43;;;;;;;22.02;15.32;;;;;;;3.81;87.10;97555.67;1798082;80;20994;-82
2021/11/16 07:34:20;;;;;;;25.72;15.70;;;;;;;3.81;87.19;97558.24;1797647;80;20971;-82
2021/11/16 07:37:05;;;;;;;18.95;13.43;;;;;;;3.81;87.24;97555.67;1797633;80;21386;-82
2021/11/16 07:39:33;;;;;;;20.85;14.18;;;;;;;3.80;87.11;97557.89;1796528;80;21097;-82
2021/11/16 07:42:06;;;;;;;19.67;14.25;;;;;;;3.81;87.02;97556.96;1769863;80;20986;-82
2021/11/16 07:44:33;;;;;;;19.35;13.00;;;;;;;3.83;86.98;97557.20;1797613;80;21433;-82
2021/11/16 07:46:58;;;;;;;20.35;12.53;;;;;;;3.90;87.07;97561.42;1797619;80;20987;-82
2021/11/16 07:49:24;;;;;;;19.30;12.30;;;;;;;3.93;86.67;97556.55;1797695;80;21338;-82
2021/11/16 07:51:52;;;;;;;23.00;12.60;;;;;;;3.91;86.73;97550.23;1797633;80;21035;-82
2021/11/16 07:54:25;;;;;;;18.60;12.98;;;;;;;3.94;86.56;97557.72;1797648;80;20995;-82
2021/11/16 07:56:51;;;;;;;19.55;12.73;;;;;;;3.93;86.66;97556.08;1797701;80;20983;-82
2021/11/16 07:59:18;;;;;;;13.75;11.48;;;;;;;3.92;86.73;97553.16;1797607;80;21021;-82
2021/11/16 08:04:23;;;;;;;18.35;12.20;;;;;;;3.88;86.15;97553.81;1797620;80;21030;-82
2021/11/16 08:14:46;;;;;;;15.72;12.15;;;;;;;3.91;87.06;97557.94;1797865;80;21346;-82
2021/11/16 08:17:13;;;;;;;16.25;11.83;;;;;;;3.99;87.35;97546.62;1796888;80;21416;-82
2021/11/16 08:19:41;;;;;;;14.73;10.63;;;;;;;4.03;87.02;97540.31;1797847;80;20990;-82
2021/11/16 08:22:10;;;;;;;16.73;12.60;;;;;;;4.05;86.92;97527.34;1798036;80;20963;-82
2021/11/16 08:24:40;;;;;;;16.32;10.72;;;;;;;4.07;86.94;97531.92;1797807;80;20984;-82
2021/11/16 08:27:13;;;;;;;13.85;11.15;;;;;;;4.07;86.79;97537.07;1797837;80;21006;-82
2021/11/16 08:29:44;;;;;;;12.90;10.65;;;;;;;4.02;86.63;97538.67;1797674;80;21015;-82
2021/11/16 08:32:16;;;;;;;16.07;11.10;;;;;;;3.93;86.42;97539.36;1798076;80;20999;-82
2021/11/16 08:34:45;;;;;;;;;;;;;;;3.91;86.44;97543.33;1800286;80;21023;-82
2021/11/16 08:37:12;;;;;;;14.78;11.10;;;;;;;3.94;86.82;97535.04;1797679;80;20096;-82
2021/11/16 08:39:48;;;;;;;14.28;10.78;;;;;;;4.01;86.86;97538.78;1798037;80;20978;-82
2021/11/16 08:42:21;;;;;;;13.80;10.53;;;;;;;4.07;87.16;97543.03;1797763;80;21062;-82
2021/11/16 08:45:04;;;;;;;17.48;12.47;;;;;;;4.14;87.42;97530.06;1797700;80;21003;-82
2021/11/16 08:47:34;;;;;;;14.33;12.82;;;;;;;4.23;87.80;97532.43;1797941;80;20991;-82
2021/11/16 08:50:01;;;;;;;17.85;13.70;;;;;;;4.37;88.13;97523.66;1797104;80;20994;-82
2021/11/16 08:52:32;;;;;;;15.18;11.55;;;;;;;4.52;88.15;97526.36;1797858;80;21353;-82
2021/11/16 08:55:13;;;;;;;19.10;15.25;;;;;;;4.67;88.57;97529.53;1797857;80;20963;-82
2021/11/16 08:57:44;;;;;;;21.55;15.30;;;;;;;4.83;88.88;97530.00;1797385;80;20967;-82
2021/11/16 09:00:28;;;;;;;20.80;15.10;;;;;;;4.99;88.60;97533.03;1797832;80;20986;-82
2021/11/16 09:03:22;;;;;;;20.95;15.63;;;;;;;5.09;88.81;97531.86;1797807;80;20982;-82
2021/11/16 09:05:49;;;;;;;20.97;15.48;;;;;;;5.17;88.48;97526.09;1797343;80;20975;-81
2021/11/16 09:08:21;;;;;;;19.73;13.98;;;;;;;5.21;88.75;97523.65;1795530;80;21397;-82
2021/11/16 09:10:48;;;;;;;19.02;14.43;;;;;;;5.31;88.73;97518.10;1779590;80;20995;-82
2021/11/16 09:13:16;;;;;;;20.30;15.08;;;;;;;5.36;88.71;97518.08;1797837;80;20991;-82
2021/11/16 09:15:47;;;;;;;19.42;14.43;;;;;;;5.43;88.66;97519.72;1797753;80;20967;-82
2021/11/16 09:18:29;;;;;;;22.70;17.10;;;;;;;5.48;88.69;97516.77;1797825;80;21012;-82
2021/11/16 09:21:04;;;;;;;29.07;21.25;;;;;;;5.53;88.91;97505.61;1797969;80;21043;-82
2021/11/16 09:23:41;;;;;;;27.07;19.50;;;;;;;5.57;88.91;97509.13;1797751;80;21475;-82
2021/11/16 09:26:33;;;;;;;31.87;23.07;;;;;;;5.63;88.74;97499.60;1797584;80;21059;-82
2021/11/16 09:29:14;;;;;;;32.20;23.42;;;;;;;5.66;88.50;97501.92;1796831;80;20983;-82
2021/11/16 09:31:45;;;;;;;32.20;22.60;;;;;;;5.72;88.48;97504.03;1797508;80;21051;-82
2021/11/16 09:34:20;;;;;;;27.33;18.63;;;;;;;5.81;88.71;97506.79;1797615;80;21058;-82
2021/11/16 09:36:58;;;;;;;40.95;27.15;;;;;;;5.89;89.03;97505.72;1795142;80;21004;-82
2021/11/16 09:39:31;;;;;;;45.83;29.77;;;;;;;5.93;88.93;97503.25;1795031;80;20979;-82
2021/11/16 09:42:05;;;;;;;41.50;28.95;;;;;;;5.97;88.79;97500.28;1794921;80;21394;-82
2021/11/16 09:44:42;;;;;;;41.55;30.97;;;;;;;5.97;88.36;97496.42;1792967;80;20971;-82
2021/11/16 09:47:24;;;;;;;39.60;28.17;;;;;;;6.03;88.68;97500.75;1794545;80;20952;-82
2021/11/16 09:49:59;;;;;;;43.33;27.15;;;;;;;6.15;88.78;97491.50;1794874;80;21026;-82
2021/11/16 09:52:34;;;;;;;44.73;30.15;;;;;;;6.30;88.91;97492.00;1794654;80;21007;-82
2021/11/16 09:55:11;;;;;;;40.60;26.82;;;;;;;6.33;88.31;97487.86;1794890;80;21054;-82
2021/11/16 09:57:47;;;;;;;46.73;30.95;;;;;;;6.36;88.31;97490.69;1794944;80;21027;-82
2021/11/16 10:00:19;;;;;;;46.45;31.17;;;;;;;6.36;88.21;97485.05;1794982;80;21428;-82
2021/11/16 10:02:47;;;;;;;44.23;28.97;;;;;;;6.37;88.32;97487.16;1795234;80;20943;-82
2021/11/16 10:05:20;;;;;;;46.28;29.32;;;;;;;6.40;88.44;97483.84;1795040;80;20986;-82
2021/11/16 10:07:51;;;;;;;45.67;30.70;;;;;;;6.39;88.52;97478.34;1794883;80;21370;-82
2021/11/16 10:10:18;;;;;;;45.73;32.03;;;;;;;6.44;88.99;97473.59;1795414;80;21082;-82
2021/11/16 10:12:47;;;;;;;46.20;30.72;;;;;;;6.46;88.38;97476.86;1794911;80;21398;-82
2021/11/16 10:15:15;;;;;;;45.80;30.88;;;;;;;6.54;88.56;97470.59;1792338;80;21382;-82
2021/11/16 10:17:42;;;;;;;46.02;30.35;;;;;;;6.68;88.84;97472.00;1776947;80;21095;-82
2021/11/16 10:20:09;;;;;;;45.78;31.17;;;;;;;6.86;88.83;97461.86;1794797;80;21103;-82
2021/11/16 10:22:35;;;;;;;45.50;31.35;;;;;;;7.01;89.01;97464.42;1794960;80;21421;-82
2021/11/16 10:25:16;;;;;;;45.00;30.50;;;;;;;7.09;88.75;97451.62;1794837;80;21116;-82
2021/11/16 10:27:43;;;;;;;41.90;30.45;;;;;;;7.16;88.18;97450.16;1766050;80;21060;-82
2021/11/16 10:30:23;;;;;;;42.95;29.35;;;;;;;7.26;88.35;97449.34;1794849;80;21336;-82
2021/11/16 10:33:11;;;;;;;46.70;32.78;;;;;;;7.36;88.23;97441.13;1795012;80;21241;-82
2021/11/16 10:35:59;;;;;;;43.50;31.07;;;;;;;7.42;88.03;97441.38;1794865;80;21048;-82
2021/11/16 10:38:39;;;;;;;43.00;31.23;;;;;;;7.51;88.00;97447.52;1794802;80;21140;-82
2021/11/16 10:41:14;;;;;;;37.88;27.20;;;;;;;7.57;87.92;97444.38;1795044;80;21332;-82
2021/11/16 10:44:00;;;;;;;43.38;30.43;;;;;;;7.57;87.09;97435.33;1794973;80;21084;-82
2021/11/16 10:46:37;;;;;;;38.45;25.70;;;;;;;7.60;87.71;97437.64;1795053;80;21008;-82
2021/11/16 10:49:11;;;;;;;34.70;24.12;;;;;;;7.73;87.46;97442.05;1794302;80;21059;-82
2021/11/16 10:51:38;;;;;;;30.43;23.92;;;;;;;7.80;86.74;97435.36;1794980;80;21450;-82
2021/11/16 10:54:05;;;;;;;31.48;24.63;;;;;;;7.84;86.14;97439.80;1794664;80;21068;-82
2021/11/16 10:56:34;;;;;;;33.28;23.65;;;;;;;7.87;86.51;97438.70;1794926;80;21033;-82
2021/11/16 10:59:16;;;;;;;34.35;25.70;;;;;;;7.93;86.33;97435.08;1794890;80;21075;-82
2021/11/16 11:01:54;;;;;;;33.08;24.00;;;;;;;7.98;85.98;97433.38;1795470;80;20993;-83
2021/11/16 11:04:35;;;;;;;35.73;26.82;;;;;;;8.04;85.61;97434.92;1794849;80;21298;-83
2021/11/16 11:07:11;;;;;;;34.15;23.77;;;;;;;8.05;84.56;97427.97;1793714;80;21346;-82
2021/11/16 11:09:38;;;;;;;33.35;24.57;;;;;;;8.04;84.13;97424.57;1794783;80;20997;-82
2021/11/16 11:12:05;;;;;;;36.08;28.95;;;;;;;7.95;82.66;97418.11;1765923;80;21278;-83
2021/11/16 11:14:36;;;;;;;37.75;29.18;;;;;;;7.88;83.50;97417.05;1786566;79;20976;-82
2021/11/16 11:17:06;;;;;;;37.65;28.12;;;;;;;7.87;83.99;97414.94;1776598;80;21063;-82
2021/11/16 11:19:35;;;;;;;35.60;27.67;;;;;;;7.90;84.37;97409.48;1794889;80;20976;-82
2021/11/16 11:22:16;;;;;;;37.53;27.52;;;;;;;7.92;83.80;97399.80;1794955;80;21067;-82
2021/11/16 11:24:49;;;;;;;37.98;27.48;;;;;;;7.99;83.68;97400.08;1793880;80;21398;-82
2021/11/16 11:29:46;;;;;;;37.95;27.45;;;;;;;8.07;83.49;97397.11;1794977;80;20993;-82
2021/11/16 11:32:17;;;;;;;35.98;25.62;;;;;;;8.12;83.39;97392.31;1794975;80;21019;-82
2021/11/16 11:35:03;;;;;;;36.37;25.90;;;;;;;8.13;83.07;97390.53;1795079;80;21096;-82
2021/11/16 11:37:38;;;;;;;34.95;24.90;;;;;;;8.12;82.68;97379.84;1758797;80;21061;-82
2021/11/16 11:40:09;;;;;;;38.28;26.40;;;;;;;8.12;82.12;97379.84;1745340;82;21046;-82
2021/11/16 11:42:48;;;;;;;34.55;24.67;;;;;;;8.13;82.10;97377.14;1745156;82;21076;-82
2021/11/16 11:45:31;;;;;;;39.00;26.93;;;;;;;8.09;81.28;97377.06;1745216;82;20967;-82
2021/11/16 11:48:12;;;;;;;38.38;27.95;;;;;;;8.04;80.68;97381.86;1745370;82;21037;-82
2021/11/16 11:50:57;;;;;;;37.93;27.73;;;;;;;7.97;81.26;97380.81;1745528;82;22040;-82
2021/11/16 11:53:27;;;;;;;33.58;26.60;;;;;;;8.01;81.82;97379.56;1745397;82;20995;-82
2021/11/16 11:56:06;;;;;;;35.83;27.32;;;;;;;8.09;81.72;97375.77;1745480;82;20975;-82
2021/11/16 11:58:37;;;;;;;32.78;25.52;;;;;;;8.18;81.35;97372.83;1745389;82;20963;-82
2021/11/16 12:01:07;;;;;;;35.78;27.07;;;;;;;8.26;81.37;97366.44;1745216;82;21043;-82